createdAt,value
2019-03-03T00:01:37.385Z,73.63
2019-03-03T00:04:08.215Z,71.63
2019-03-03T00:06:37.853Z,74.17
2019-03-03T00:09:08.202Z,78.30
2019-03-03T00:11:37.906Z,75.93
2019-03-03T00:14:07.681Z,71.53
2019-03-03T00:16:37.386Z,69.00
2019-03-03T00:19:07.065Z,69.83
2019-03-03T00:21:36.754Z,73.60
2019-03-03T00:24:06.470Z,75.43
2019-03-03T00:26:36.129Z,74.03
2019-03-03T00:29:05.792Z,76.20
2019-03-03T00:31:41.529Z,73.57
2019-03-03T00:34:11.226Z,75.77
2019-03-03T00:36:59.109Z,90.83
2019-03-03T00:39:36.605Z,73.80
2019-03-03T00:42:23.175Z,76.43
2019-03-03T00:45:00.504Z,68.53
2019-03-03T00:47:38.068Z,74.77
2019-03-03T00:50:09.535Z,72.87
2019-03-03T00:52:40.824Z,77.03
2019-03-03T00:55:14.820Z,70.47
2019-03-03T00:57:48.748Z,76.57
2019-03-03T01:00:37.980Z,69.13
2019-03-03T01:03:09.399Z,67.60
2019-03-03T01:05:56.962Z,64.30
2019-03-03T01:08:37.493Z,67.67
2019-03-03T01:11:17.803Z,66.67
2019-03-03T01:13:58.212Z,67.90
2019-03-03T01:16:41.825Z,72.53
2019-03-03T01:19:13.146Z,60.83
2019-03-03T01:22:00.830Z,62.53
2019-03-03T01:24:32.148Z,68.97
2019-03-03T01:27:01.910Z,59.10
2019-03-03T01:29:31.573Z,64.00
2019-03-03T01:32:01.513Z,66.00
2019-03-03T01:34:34.231Z,57.87
2019-03-03T01:37:03.958Z,59.70
2019-03-03T01:39:33.931Z,54.67
2019-03-03T01:42:03.716Z,56.80
2019-03-03T01:44:33.371Z,55.50
2019-03-03T01:47:03.052Z,58.83
2019-03-03T01:49:32.776Z,54.70
2019-03-03T01:52:02.493Z,55.63
2019-03-03T01:54:32.194Z,53.17
2019-03-03T01:57:01.946Z,51.37
2019-03-03T01:59:31.613Z,67.53
2019-03-03T02:02:01.335Z,52.13
2019-03-03T02:04:30.982Z,49.83
2019-03-03T02:07:00.714Z,52.30
2019-03-03T02:09:30.661Z,56.83
2019-03-03T02:12:00.437Z,51.93
2019-03-03T02:14:30.212Z,53.37
2019-03-03T02:16:59.956Z,51.33
2019-03-03T02:19:29.988Z,53.80
2019-03-03T02:21:59.741Z,52.17
2019-03-03T02:24:29.384Z,49.17
2019-03-03T02:26:59.116Z,51.67
2019-03-03T02:29:28.842Z,50.23
2019-03-03T02:31:58.766Z,51.07
2019-03-03T02:34:28.488Z,50.37
2019-03-03T02:36:58.529Z,45.70
2019-03-03T02:39:31.371Z,49.57
2019-03-03T02:42:01.079Z,49.57
2019-03-03T02:44:30.803Z,47.90
2019-03-03T02:47:00.461Z,54.13
2019-03-03T02:49:30.160Z,55.00
2019-03-03T02:52:07.107Z,47.80
2019-03-03T02:54:36.757Z,52.37
2019-03-03T02:57:06.457Z,56.60
2019-03-03T02:59:36.128Z,56.97
2019-03-03T03:02:07.519Z,50.57
2019-03-03T03:04:37.293Z,55.20
2019-03-03T03:07:08.551Z,55.23
2019-03-03T03:09:39.933Z,47.73
2019-03-03T03:12:13.998Z,49.40
2019-03-03T03:14:45.617Z,44.63
2019-03-03T03:17:26.438Z,54.83
2019-03-03T03:19:58.028Z,45.07
2019-03-03T03:22:35.834Z,45.83
2019-03-03T03:25:26.665Z,43.30
2019-03-03T03:28:14.323Z,47.00
2019-03-03T03:30:45.723Z,58.30
2019-03-03T03:33:20.003Z,44.53
2019-03-03T03:35:54.255Z,40.73
2019-03-03T03:38:34.274Z,43.60
2019-03-03T03:41:05.612Z,35.90
2019-03-03T03:43:49.261Z,41.10
2019-03-03T03:46:20.598Z,38.23
2019-03-03T03:49:06.968Z,51.47
2019-03-03T03:51:55.030Z,41.90
2019-03-03T03:54:25.873Z,36.43
2019-03-03T03:57:05.856Z,38.80
2019-03-03T03:59:42.962Z,39.13
2019-03-03T04:02:32.745Z,35.97
2019-03-03T04:05:20.815Z,41.03
2019-03-03T04:07:55.033Z,46.43
2019-03-03T04:10:26.373Z,51.40
2019-03-03T04:13:06.600Z,45.87
2019-03-03T04:15:40.805Z,38.87
2019-03-03T04:18:18.272Z,38.17
2019-03-03T04:21:02.001Z,34.07
2019-03-03T04:23:35.989Z,38.10
2019-03-03T04:26:09.865Z,41.37
2019-03-03T04:28:43.908Z,49.07
2019-03-03T04:31:21.372Z,37.23
2019-03-03T04:33:52.848Z,44.47
2019-03-03T04:36:30.125Z,42.77
2019-03-03T04:39:10.711Z,32.57
2019-03-03T04:41:44.853Z,48.43
2019-03-03T04:44:25.397Z,43.90
2019-03-03T04:46:56.707Z,37.67
2019-03-03T04:49:44.647Z,42.63
2019-03-03T04:52:34.326Z,35.23
2019-03-03T04:55:09.885Z,41.20
2019-03-03T04:57:46.772Z,54.13
2019-03-03T05:00:20.867Z,43.23
2019-03-03T05:03:04.125Z,57.77
2019-03-03T05:05:38.153Z,44.17
2019-03-03T05:08:12.138Z,43.33
2019-03-03T05:10:44.538Z,51.70
2019-03-03T05:13:18.959Z,49.10
2019-03-03T05:15:56.111Z,47.33
2019-03-03T05:18:42.492Z,46.30
2019-03-03T05:21:12.230Z,43.03
2019-03-03T05:23:42.953Z,46.30
2019-03-03T05:26:12.636Z,45.60
2019-03-03T05:28:42.293Z,39.90
2019-03-03T05:31:12.165Z,53.97
2019-03-03T05:33:41.876Z,43.90
2019-03-03T05:36:11.535Z,47.63
2019-03-03T05:38:44.444Z,30.97
2019-03-03T05:41:14.105Z,45.33
2019-03-03T05:43:43.809Z,31.07
2019-03-03T05:46:15.193Z,32.43
2019-03-03T05:48:44.889Z,42.50
2019-03-03T05:51:14.613Z,30.77
2019-03-03T05:53:44.382Z,33.37
2019-03-03T05:56:14.098Z,37.10
2019-03-03T05:58:43.894Z,41.17
2019-03-03T06:01:13.540Z,31.37
2019-03-03T06:03:43.215Z,31.57
2019-03-03T06:06:15.979Z,26.53
2019-03-03T06:08:45.735Z,28.67
2019-03-03T06:11:15.384Z,25.90
2019-03-03T06:13:45.096Z,26.83
2019-03-03T06:16:14.737Z,24.93
2019-03-03T06:18:44.475Z,25.80
2019-03-03T06:21:14.265Z,24.20
2019-03-03T06:23:43.937Z,20.43
2019-03-03T06:26:15.234Z,20.30
2019-03-03T06:28:44.937Z,17.00
2019-03-03T06:31:14.593Z,18.50
2019-03-03T06:33:44.414Z,25.30
2019-03-03T06:36:14.201Z,20.97
2019-03-03T06:38:43.849Z,20.00
2019-03-03T06:41:13.769Z,21.87
2019-03-03T06:43:43.460Z,17.70
2019-03-03T06:46:13.165Z,20.40
2019-03-03T06:48:42.993Z,17.67
2019-03-03T06:51:12.638Z,18.63
2019-03-03T06:53:42.307Z,17.53
2019-03-03T06:56:14.240Z,17.10
2019-03-03T06:58:43.654Z,13.87
2019-03-03T07:01:13.346Z,14.73
2019-03-03T07:03:43.030Z,15.60
2019-03-03T07:06:12.739Z,15.70
2019-03-03T07:08:42.402Z,16.63
2019-03-03T07:11:12.089Z,16.27
2019-03-03T07:13:41.780Z,14.20
2019-03-03T07:16:11.414Z,16.23
2019-03-03T07:18:41.652Z,13.83
2019-03-03T07:21:11.308Z,13.57
2019-03-03T07:23:41.056Z,12.07
2019-03-03T07:26:10.767Z,10.53
2019-03-03T07:28:40.475Z,12.17
2019-03-03T07:31:10.284Z,10.77
2019-03-03T07:33:40.021Z,11.13
2019-03-03T07:36:09.712Z,10.13
2019-03-03T07:38:39.377Z,11.20
2019-03-03T07:41:09.043Z,11.43
2019-03-03T07:43:38.746Z,9.57
2019-03-03T07:46:08.391Z,12.80
2019-03-03T07:48:38.021Z,7.47
2019-03-03T07:51:07.672Z,8.33
2019-03-03T07:53:37.368Z,8.17
2019-03-03T07:56:07.097Z,9.23
2019-03-03T07:58:36.749Z,8.00
2019-03-03T08:01:06.465Z,9.97
2019-03-03T08:03:36.041Z,10.50
2019-03-03T08:06:05.746Z,9.10
2019-03-03T08:08:35.398Z,11.07
2019-03-03T08:11:05.134Z,12.57
2019-03-03T08:13:34.783Z,17.53
2019-03-03T08:16:04.562Z,12.50
2019-03-03T08:18:34.227Z,16.70
2019-03-03T08:21:03.965Z,19.07
2019-03-03T08:23:33.623Z,21.93
2019-03-03T08:26:03.306Z,21.27
2019-03-03T08:28:33.068Z,20.83
2019-03-03T08:31:03.448Z,20.13
2019-03-03T08:33:33.127Z,24.63
2019-03-03T08:36:02.840Z,25.90
2019-03-03T08:38:32.506Z,29.87
2019-03-03T08:41:03.325Z,30.47
2019-03-03T08:43:34.667Z,32.60
2019-03-03T08:46:07.162Z,30.27
2019-03-03T08:48:44.334Z,28.27
2019-03-03T08:51:16.102Z,21.57
2019-03-03T08:53:47.392Z,33.83
2019-03-03T08:56:21.439Z,30.30
2019-03-03T08:58:52.821Z,25.70
2019-03-03T09:01:26.913Z,25.33
2019-03-03T09:04:00.244Z,32.03
2019-03-03T09:06:34.541Z,28.33
2019-03-03T09:09:19.615Z,25.00
2019-03-03T09:12:09.400Z,32.53
2019-03-03T09:14:40.743Z,33.97
2019-03-03T09:17:12.045Z,31.77
2019-03-03T09:19:49.217Z,35.33
2019-03-03T09:22:36.719Z,36.77
2019-03-03T09:25:10.043Z,32.77
2019-03-03T09:27:59.865Z,35.70
2019-03-03T09:30:31.167Z,35.78
2019-03-03T09:33:05.191Z,43.07
2019-03-03T09:35:36.508Z,30.63
2019-03-03T09:38:13.863Z,34.70
2019-03-03T09:40:48.474Z,37.43
2019-03-03T09:43:30.883Z,34.53
2019-03-03T09:46:18.115Z,32.93
2019-03-03T09:49:05.633Z,35.53
2019-03-03T09:51:39.677Z,31.00
2019-03-03T09:54:11.187Z,32.10
2019-03-03T09:56:44.986Z,40.38
2019-03-03T09:59:22.243Z,35.37
2019-03-03T10:02:09.691Z,37.30
2019-03-03T10:04:57.034Z,36.27
2019-03-03T10:07:37.963Z,32.37
2019-03-03T10:10:28.226Z,32.50
2019-03-03T10:13:16.191Z,40.60
2019-03-03T10:15:47.601Z,35.40
2019-03-03T10:18:25.154Z,24.53
2019-03-03T10:20:59.208Z,38.00
2019-03-03T10:23:36.501Z,30.23
2019-03-03T10:26:10.342Z,33.00
2019-03-03T10:28:44.228Z,41.30
2019-03-03T10:31:15.535Z,35.23
2019-03-03T10:34:01.748Z,24.50
2019-03-03T10:36:45.327Z,40.93
2019-03-03T10:39:22.445Z,41.77
2019-03-03T10:42:05.588Z,39.83
2019-03-03T10:44:46.006Z,35.63
2019-03-03T10:47:20.296Z,35.37
2019-03-03T10:49:54.590Z,30.13
2019-03-03T10:52:26.063Z,35.20
2019-03-03T10:54:57.390Z,30.33
2019-03-03T10:57:31.444Z,33.67
2019-03-03T11:00:21.248Z,45.43
2019-03-03T11:03:08.868Z,29.80
2019-03-03T11:05:55.187Z,32.63
2019-03-03T11:08:42.755Z,31.47
2019-03-03T11:11:23.376Z,37.40
2019-03-03T11:14:07.135Z,42.17
2019-03-03T11:16:50.502Z,39.80
2019-03-03T11:19:21.836Z,31.90
2019-03-03T11:21:59.103Z,38.43
2019-03-03T11:24:36.414Z,32.93
2019-03-03T11:27:13.868Z,39.93
2019-03-03T11:29:57.820Z,33.73
2019-03-03T11:32:44.065Z,36.33
2019-03-03T11:35:15.550Z,33.03
2019-03-03T11:37:49.941Z,33.90
2019-03-03T11:40:30.661Z,25.60
2019-03-03T11:43:10.838Z,30.47
2019-03-03T11:45:42.679Z,33.50
2019-03-03T11:48:30.557Z,34.00
2019-03-03T11:51:04.805Z,34.03
2019-03-03T11:53:36.078Z,30.90
2019-03-03T11:56:13.199Z,21.30
2019-03-03T11:58:47.500Z,24.17
2019-03-03T12:01:21.726Z,20.43
2019-03-03T12:04:08.337Z,27.70
2019-03-03T12:06:42.159Z,33.23
2019-03-03T12:09:29.771Z,25.90
2019-03-03T12:12:16.073Z,27.77
2019-03-03T12:14:51.109Z,29.83
2019-03-03T12:17:25.517Z,24.70
2019-03-03T12:19:56.894Z,25.17
2019-03-03T12:22:30.664Z,30.53
2019-03-03T12:25:02.166Z,22.37
2019-03-03T12:27:36.681Z,28.80
2019-03-03T12:30:17.048Z,20.13
2019-03-03T12:32:48.655Z,20.10
2019-03-03T12:35:20.099Z,31.20
2019-03-03T12:37:51.429Z,28.80
2019-03-03T12:40:39.146Z,23.27
2019-03-03T12:43:10.777Z,23.67
2019-03-03T12:45:42.126Z,21.70
2019-03-03T12:48:29.399Z,33.90
2019-03-03T12:51:00.807Z,23.23
2019-03-03T12:53:34.965Z,21.93
2019-03-03T12:56:12.120Z,27.30
2019-03-03T12:58:43.522Z,26.07
2019-03-03T13:01:31.082Z,27.73
2019-03-03T13:04:02.959Z,28.53
2019-03-03T13:06:43.458Z,23.90
2019-03-03T13:09:24.038Z,26.83
2019-03-03T13:12:01.259Z,19.73
2019-03-03T13:14:48.814Z,17.80
2019-03-03T13:17:29.150Z,25.80
2019-03-03T13:20:06.581Z,23.20
2019-03-03T13:22:46.793Z,29.40
2019-03-03T13:25:18.479Z,21.27
2019-03-03T13:27:58.827Z,24.93
2019-03-03T13:30:34.661Z,28.27
2019-03-03T13:33:20.854Z,27.67
2019-03-03T13:36:08.752Z,32.47
2019-03-03T13:38:40.639Z,20.80
2019-03-03T13:41:18.803Z,26.83
2019-03-03T13:43:48.769Z,21.37
2019-03-03T13:46:20.171Z,23.90
2019-03-03T13:48:51.332Z,22.20
2019-03-03T13:51:21.429Z,23.03
2019-03-03T13:53:51.274Z,23.87
2019-03-03T13:56:21.364Z,23.90
2019-03-03T13:58:51.539Z,20.33
2019-03-03T14:01:21.453Z,21.77
2019-03-03T14:03:51.195Z,26.30
2019-03-03T14:06:21.271Z,20.93
2019-03-03T14:08:51.069Z,31.93
2019-03-03T14:11:31.204Z,27.43
2019-03-03T14:14:04.630Z,26.97
2019-03-03T14:16:34.746Z,27.53
2019-03-03T14:19:04.650Z,20.03
2019-03-03T14:21:34.570Z,25.97
2019-03-03T14:24:04.810Z,26.67
2019-03-03T14:26:34.876Z,20.47
2019-03-03T14:29:05.473Z,21.33
2019-03-03T14:31:36.284Z,25.53
2019-03-03T14:38:05.840Z,26.50
2019-03-03T14:40:45.235Z,19.97
2019-03-03T14:43:20.181Z,24.50
2019-03-03T14:45:54.882Z,15.20
2019-03-03T14:48:33.214Z,20.97
2019-03-03T14:51:06.241Z,20.13
2019-03-03T14:54:13.592Z,23.13
2019-03-03T14:56:45.814Z,14.50
2019-03-03T14:59:18.335Z,21.87
2019-03-03T15:01:58.902Z,21.63
2019-03-03T15:04:45.561Z,21.90
2019-03-03T15:07:19.452Z,17.47
2019-03-03T15:09:54.874Z,20.93
2019-03-03T15:12:27.960Z,15.03
2019-03-03T15:15:02.730Z,12.40
2019-03-03T15:17:50.126Z,14.67
2019-03-03T15:20:24.512Z,20.80
2019-03-03T15:22:56.845Z,14.00
2019-03-03T15:25:31.296Z,15.67
2019-03-03T15:28:06.150Z,16.10
2019-03-03T15:30:38.008Z,11.50
2019-03-03T15:33:24.778Z,15.83
2019-03-03T15:35:56.168Z,14.27
2019-03-03T15:38:28.030Z,19.97
2019-03-03T15:40:58.794Z,19.60
2019-03-03T15:43:28.827Z,12.23
2019-03-03T15:45:58.951Z,14.70
2019-03-03T15:48:29.254Z,16.97
2019-03-03T15:50:59.462Z,14.83
2019-03-03T15:53:30.064Z,17.23
2019-03-03T15:56:00.220Z,17.93
2019-03-03T15:58:30.718Z,21.23
2019-03-03T16:01:01.147Z,18.50
2019-03-03T16:03:31.338Z,23.10
2019-03-03T16:06:01.230Z,18.03
2019-03-03T16:08:31.177Z,16.30
2019-03-03T16:11:05.619Z,21.30
2019-03-03T16:13:35.870Z,13.43
2019-03-03T16:16:06.769Z,17.13
2019-03-03T16:18:38.076Z,18.63
2019-03-03T16:21:08.252Z,18.77
2019-03-03T16:23:38.365Z,14.10
2019-03-03T16:26:08.832Z,12.33
2019-03-03T16:28:38.874Z,16.83
2019-03-03T16:31:08.611Z,21.03
2019-03-03T16:33:41.366Z,18.20
2019-03-03T16:36:11.885Z,13.07
2019-03-03T16:38:42.813Z,17.80
2019-03-03T16:41:14.187Z,24.63
2019-03-03T16:43:45.036Z,18.47
2019-03-03T16:46:15.843Z,15.10
2019-03-03T16:48:46.529Z,13.00
2019-03-03T16:51:16.571Z,18.93
2019-03-03T16:53:47.879Z,14.20
2019-03-03T16:56:18.469Z,24.60
2019-03-03T16:58:50.216Z,16.47
2019-03-03T17:01:20.669Z,20.53
2019-03-03T17:03:50.652Z,19.83
2019-03-03T17:06:21.970Z,22.13
2019-03-03T17:08:51.906Z,15.93
2019-03-03T17:11:21.737Z,23.13
2019-03-03T17:13:51.613Z,20.30
2019-03-03T17:16:21.572Z,20.03
2019-03-03T17:18:52.115Z,15.53
2019-03-03T17:21:22.190Z,19.10
2019-03-03T17:23:52.902Z,24.27
2019-03-03T17:26:24.601Z,21.87
2019-03-03T17:28:54.869Z,21.53
2019-03-03T17:31:26.167Z,15.77
2019-03-03T17:33:57.025Z,26.07
2019-03-03T17:36:29.571Z,22.00
2019-03-03T17:39:07.517Z,17.27
2019-03-03T17:41:38.652Z,12.47
2019-03-03T17:44:18.073Z,20.10
2019-03-03T17:47:00.727Z,16.80
2019-03-03T17:50:22.682Z,22.50
2019-03-03T17:56:40.656Z,15.43
2019-03-03T17:59:10.608Z,14.33
2019-03-03T18:01:40.678Z,17.53
2019-03-03T18:04:11.207Z,16.13
2019-03-03T18:06:47.835Z,12.50
2019-03-03T18:09:18.478Z,19.03
2019-03-03T18:11:54.487Z,22.37
2019-03-03T18:14:26.159Z,13.47
2019-03-03T18:17:00.030Z,13.03
2019-03-03T18:19:33.100Z,12.63
2019-03-03T18:22:03.707Z,11.50
2019-03-03T18:24:33.975Z,10.93
2019-03-03T18:27:03.891Z,12.63
2019-03-03T18:29:34.269Z,12.30
2019-03-03T18:32:04.138Z,12.07
2019-03-03T18:34:34.092Z,11.60
2019-03-03T18:37:04.344Z,11.53
2019-03-03T18:39:34.114Z,8.50
2019-03-03T18:42:04.353Z,9.13
2019-03-03T18:44:34.193Z,14.03
2019-03-03T18:47:04.494Z,10.43
2019-03-03T18:49:34.527Z,16.67
2019-03-03T18:52:05.107Z,11.87
2019-03-03T18:54:38.967Z,11.90
2019-03-03T18:57:09.687Z,14.93
2019-03-03T18:59:40.360Z,12.30
2019-03-03T19:02:10.678Z,11.57
2019-03-03T19:04:41.202Z,12.47
2019-03-03T19:07:12.513Z,13.13
2019-03-03T19:09:43.459Z,13.07
2019-03-03T19:12:14.531Z,16.87
2019-03-03T19:14:44.633Z,20.27
2019-03-03T19:17:14.771Z,14.13
2019-03-03T19:19:46.376Z,18.77
2019-03-03T19:22:16.976Z,16.57
2019-03-03T19:24:47.175Z,18.43
2019-03-03T19:27:16.806Z,19.73
2019-03-03T19:29:47.392Z,16.60
2019-03-03T19:32:17.762Z,16.67
2019-03-03T19:34:48.017Z,16.20
2019-03-03T19:37:18.988Z,18.60
2019-03-03T19:39:49.437Z,15.80
2019-03-03T19:42:20.062Z,18.10
2019-03-03T19:44:51.015Z,17.83
2019-03-03T19:47:20.972Z,19.90
2019-03-03T19:49:50.994Z,16.43
2019-03-03T19:52:21.990Z,12.57
2019-03-03T19:54:53.130Z,14.60
2019-03-03T19:57:23.281Z,14.30
2019-03-03T20:00:01.063Z,12.00
2019-03-03T20:02:31.874Z,12.33
2019-03-03T20:05:02.180Z,14.70
2019-03-03T20:07:32.434Z,14.10
2019-03-03T20:10:12.572Z,11.17
2019-03-03T20:12:43.159Z,15.23
2019-03-03T20:15:13.555Z,12.80
2019-03-03T20:17:46.095Z,13.00
2019-03-03T20:20:23.164Z,11.83
2019-03-03T20:22:53.402Z,13.03
2019-03-03T20:25:25.231Z,12.20
2019-03-03T20:27:59.219Z,12.43
2019-03-03T20:30:29.681Z,13.80
2019-03-03T20:32:59.670Z,12.37
2019-03-03T20:35:32.150Z,11.27
2019-03-03T20:38:02.695Z,14.73
2019-03-03T20:40:33.251Z,12.20
2019-03-03T20:43:04.586Z,11.63
2019-03-03T20:45:35.270Z,12.17
2019-03-03T20:48:05.677Z,11.07
2019-03-03T20:50:37.826Z,14.00
2019-03-03T20:53:08.069Z,13.73
2019-03-03T20:55:38.586Z,12.13
2019-03-03T20:58:09.817Z,10.90
2019-03-03T21:00:40.270Z,13.80
2019-03-03T21:03:10.631Z,13.87
2019-03-03T21:06:19.168Z,11.67
2019-03-03T21:09:33.339Z,16.87
2019-03-03T21:12:10.828Z,12.77
2019-03-03T21:14:40.854Z,15.70
2019-03-03T21:17:10.845Z,19.63
2019-03-03T21:19:40.837Z,18.17
2019-03-03T21:22:11.030Z,18.67
2019-03-03T21:24:40.913Z,18.83
2019-03-03T21:27:11.031Z,19.17
2019-03-03T21:29:41.009Z,21.47
2019-03-03T21:32:11.456Z,22.57
2019-03-03T21:34:41.443Z,24.50
2019-03-03T21:37:11.788Z,29.40
2019-03-03T21:39:42.090Z,21.30
2019-03-03T21:42:12.017Z,23.27
2019-03-03T21:44:42.790Z,26.10
2019-03-03T21:47:13.284Z,24.20
2019-03-03T21:49:43.506Z,28.33
2019-03-03T21:52:13.366Z,29.37
2019-03-03T21:54:43.308Z,28.60
2019-03-03T21:57:13.681Z,29.30
2019-03-03T21:59:43.984Z,25.27
2019-03-03T22:02:15.534Z,29.83
2019-03-03T22:04:45.809Z,33.80
2019-03-03T22:07:17.215Z,31.53
2019-03-03T22:09:47.283Z,27.87
2019-03-03T22:12:17.431Z,32.70
2019-03-03T22:14:47.291Z,30.07
2019-03-03T22:17:17.310Z,35.80
2019-03-03T22:19:47.421Z,31.97
2019-03-03T22:22:18.098Z,40.93
2019-03-03T22:24:52.760Z,30.80
2019-03-03T22:27:29.927Z,31.03
2019-03-03T22:30:03.195Z,32.53
2019-03-03T22:32:42.210Z,34.07
2019-03-03T22:35:20.183Z,27.40
2019-03-03T22:38:01.408Z,37.67
2019-03-03T22:40:41.745Z,35.73
2019-03-03T22:43:20.863Z,35.97
2019-03-03T22:45:57.075Z,36.07
2019-03-03T22:48:27.346Z,42.70
2019-03-03T22:50:57.647Z,39.47
2019-03-03T22:53:28.213Z,34.03
2019-03-03T22:55:58.258Z,40.43
2019-03-03T22:58:28.479Z,38.53
2019-03-03T23:01:08.137Z,38.93
2019-03-03T23:03:56.547Z,32.40
2019-03-03T23:06:36.715Z,29.73
2019-03-03T23:09:12.695Z,39.17
2019-03-03T23:12:13.141Z,34.40
2019-03-03T23:14:48.879Z,37.10
2019-03-03T23:17:43.944Z,34.97
2019-03-03T23:20:25.610Z,28.90
2019-03-03T23:23:17.830Z,41.27
2019-03-03T23:25:52.203Z,36.97
2019-03-03T23:28:22.229Z,31.00
2019-03-03T23:30:52.779Z,36.33
2019-03-03T23:33:22.571Z,39.83
2019-03-03T23:35:52.864Z,33.50
2019-03-03T23:38:22.664Z,39.87
2019-03-03T23:40:56.124Z,33.43
2019-03-03T23:43:26.972Z,33.23
2019-03-03T23:45:57.164Z,32.67
2019-03-03T23:48:27.171Z,35.70
2019-03-03T23:50:57.121Z,37.50
2019-03-03T23:53:26.999Z,34.00
2019-03-03T23:55:57.258Z,38.73
2019-03-03T23:58:28.035Z,32.40
